Terminal Aerodrome Forecast
Issued by NWS Memphis, TN

Home | Current Version | Previous Version | Text Only | Print | Product List | Glossary On
Versions: 1 2 3 4 5 6 7 8 9 10 11 12 13 14 15 16 17 18 19 20 21 22 23 24 25 26 27 28
000
FTUS44 KMEG 290528
TAFMEM
TAF
KMEM 290528Z 2906/3006 19012G22KT P6SM BKN100 WS020/23055KT
     FM291300 24011G17KT P6SM SCT025 OVC080
     FM291700 32012G18KT P6SM OVC025
     FM300000 36008KT P6SM BKN025=

USA.gov is the U.S. government's official web portal to all federal, state and local government web resources and services.